Time;durP1;ratioP1;P1;durP2;ratioP2;P2;SDS_P1;SDS_P2;PMS_P1;PMS_P2;Temp;Humidity;BMP_temperature;BMP_pressure;BME280_temperature;BME280_humidity;BME280_pressure;Samples;Min_cycle;Max_cycle;Signal;HPM_P1;HPM_P2
2022/03/30 00:00:00;;;;;;;23.30;11.73;;;12.00;67.20;;;;;;5011358;28;20030;-73
2022/03/30 00:02:26;;;;;;;24.17;11.73;;;12.10;67.30;;;;;;5011515;28;20444;-70
2022/03/30 00:04:52;;;;;;;25.63;12.98;;;12.10;67.10;;;;;;5011514;28;20030;-73
2022/03/30 00:07:19;;;;;;;20.95;11.48;;;12.20;67.10;;;;;;5011632;28;20014;-73
2022/03/30 00:09:45;;;;;;;22.15;11.52;;;12.30;66.90;;;;;;5011333;28;20045;-71
2022/03/30 00:12:11;;;;;;;24.70;11.98;;;12.30;66.70;;;;;;5011461;28;20034;-73
2022/03/30 00:14:37;;;;;;;24.45;11.27;;;12.40;66.60;;;;;;5009025;28;20118;-71
2022/03/30 00:17:03;;;;;;;18.90;10.73;;;12.40;66.30;;;;;;5009513;28;20029;-71
2022/03/30 00:19:31;;;;;;;21.23;11.60;;;12.50;65.90;;;;;;5014803;28;20026;-70
2022/03/30 00:21:57;;;;;;;20.55;10.75;;;12.50;65.80;;;;;;5014805;28;20066;-69
2022/03/30 00:24:23;;;;;;;20.20;10.57;;;12.50;65.70;;;;;;5014408;28;20091;-71
2022/03/30 00:26:53;;;;;;;18.02;10.50;;;12.50;65.90;;;;;;5012052;28;20022;-70
2022/03/30 00:29:20;;;;;;;23.35;11.05;;;12.40;66.10;;;;;;5024226;28;20441;-71
2022/03/30 00:31:45;;;;;;;18.52;9.98;;;12.30;66.40;;;;;;5007516;28;20030;-73
2022/03/30 00:34:11;;;;;;;19.90;9.60;;;12.30;66.10;;;;;;5010715;28;20349;-73
2022/03/30 00:36:37;;;;;;;17.48;9.35;;;12.30;66.50;;;;;;5014509;28;20365;-68
2022/03/30 00:39:03;;;;;;;19.75;10.48;;;12.30;66.40;;;;;;5014581;28;20022;-72
2022/03/30 00:41:29;;;;;;;19.35;9.30;;;12.30;66.40;;;;;;5014580;28;20026;-71
2022/03/30 00:43:55;;;;;;;19.85;9.68;;;12.30;66.70;;;;;;5011210;28;20476;-71
2022/03/30 00:46:20;;;;;;;22.55;10.02;;;12.30;66.30;;;;;;5013797;28;20046;-70
2022/03/30 00:48:46;;;;;;;20.08;10.02;;;12.30;66.50;;;;;;5014479;28;20111;-72
2022/03/30 00:51:12;;;;;;;20.60;9.20;;;12.30;66.30;;;;;;5014323;28;20068;-72
2022/03/30 00:53:39;;;;;;;23.30;9.90;;;12.20;66.40;;;;;;5014234;28;20539;-68
2022/03/30 00:56:07;;;;;;;17.55;9.88;;;12.20;66.60;;;;;;5014340;28;20034;-72
2022/03/30 00:58:34;;;;;;;18.80;9.30;;;12.10;66.60;;;;;;5013758;28;20116;-72
2022/03/30 01:01:00;;;;;;;16.85;10.35;;;12.00;66.70;;;;;;5014193;28;20022;-72
2022/03/30 01:03:26;;;;;;;18.58;10.68;;;12.00;66.90;;;;;;5013219;28;20061;-70
2022/03/30 01:05:52;;;;;;;19.45;10.60;;;11.90;67.00;;;;;;5013911;28;20106;-69
2022/03/30 01:08:18;;;;;;;17.48;10.35;;;11.90;67.10;;;;;;5011031;28;20042;-65
2022/03/30 01:10:43;;;;;;;20.00;10.73;;;11.90;67.30;;;;;;5005016;28;20362;-65
2022/03/30 01:13:09;;;;;;;21.50;11.95;;;11.90;67.40;;;;;;5002423;28;20057;-71
2022/03/30 01:15:37;;;;;;;20.95;11.80;;;11.90;67.40;;;;;;4998075;28;20030;-64
2022/03/30 01:18:03;;;;;;;20.52;11.40;;;11.90;67.40;;;;;;4996771;28;20057;-69
2022/03/30 01:20:29;;;;;;;22.45;13.30;;;11.90;67.30;;;;;;5012297;28;20516;-70
2022/03/30 01:22:55;;;;;;;23.73;12.13;;;11.90;67.10;;;;;;4994156;28;20117;-69
2022/03/30 01:25:21;;;;;;;25.13;12.48;;;11.80;67.10;;;;;;4994129;28;20105;-71
2022/03/30 01:27:47;;;;;;;20.80;11.68;;;11.80;67.40;;;;;;5001904;28;20664;-64
2022/03/30 01:33:04;;;;;;;18.10;9.60;;;11.70;67.30;;;;;;5001652;28;20034;-70
2022/03/30 01:35:30;;;;;;;19.08;9.30;;;11.70;67.40;;;;;;5013688;28;20030;-71
2022/03/30 01:37:56;;;;;;;17.08;10.40;;;11.70;67.30;;;;;;5002144;28;20034;-70
2022/03/30 01:40:22;;;;;;;19.40;9.50;;;11.60;67.40;;;;;;4994001;28;20476;-70
2022/03/30 01:42:48;;;;;;;26.35;13.75;;;11.70;67.50;;;;;;4993726;28;20026;-71
2022/03/30 01:45:16;;;;;;;22.35;14.10;;;11.60;67.50;;;;;;5004051;28;20068;-70
2022/03/30 01:47:52;;;;;;;16.83;8.68;;;11.60;67.50;;;;;;5012812;28;20034;-64
2022/03/30 01:50:18;;;;;;;16.95;8.73;;;11.60;67.70;;;;;;5012735;28;20038;-70
2022/03/30 01:52:45;;;;;;;17.67;8.55;;;11.60;67.80;;;;;;5012121;28;20030;-69
2022/03/30 01:55:11;;;;;;;15.45;8.75;;;11.70;67.60;;;;;;5012615;28;20029;-69
2022/03/30 01:57:38;;;;;;;15.18;8.68;;;11.70;67.40;;;;;;5012622;28;20018;-69
2022/03/30 02:00:04;;;;;;;17.55;8.40;;;11.70;67.50;;;;;;5012710;28;20037;-70
2022/03/30 02:02:39;;;;;;;18.95;8.77;;;11.70;67.50;;;;;;5013169;28;20034;-71
2022/03/30 02:05:08;;;;;;;19.33;8.10;;;11.70;67.80;;;;;;5013252;28;20026;-71
2022/03/30 02:07:36;;;;;;;16.90;8.43;;;11.60;67.70;;;;;;5012524;28;20026;-71
2022/03/30 02:10:04;;;;;;;16.70;8.35;;;11.60;67.80;;;;;;4993017;28;20121;-71
2022/03/30 02:12:30;;;;;;;19.35;9.32;;;11.50;67.40;;;;;;4993147;28;20026;-72
2022/03/30 02:14:57;;;;;;;16.80;8.70;;;11.50;67.70;;;;;;5008685;28;20026;-71
2022/03/30 02:17:25;;;;;;;19.42;8.48;;;11.40;67.80;;;;;;5012271;28;20395;-70
2022/03/30 02:19:51;;;;;;;15.80;7.60;;;11.40;67.90;;;;;;5012549;28;20030;-72
2022/03/30 02:22:17;;;;;;;19.73;7.68;;;11.30;68.00;;;;;;5012920;28;20037;-71
2022/03/30 02:24:43;;;;;;;21.73;9.07;;;11.30;68.10;;;;;;5012582;28;20057;-72
2022/03/30 02:27:09;;;;;;;16.17;8.25;;;11.20;68.10;;;;;;5012632;28;20080;-71
2022/03/30 02:29:35;;;;;;;23.67;8.48;;;11.20;68.10;;;;;;5012260;28;20101;-72
2022/03/30 02:32:01;;;;;;;20.33;9.48;;;11.10;68.30;;;;;;5012170;28;20038;-72
2022/03/30 02:34:28;;;;;;;18.77;8.50;;;11.00;68.40;;;;;;5012519;28;20021;-71
2022/03/30 02:36:53;;;;;;;29.38;13.18;;;11.00;68.60;;;;;;5012447;28;20057;-72
2022/03/30 02:39:19;;;;;;;25.02;12.05;;;11.00;68.60;;;;;;5012151;28;20061;-70
2022/03/30 02:41:46;;;;;;;26.80;12.40;;;10.90;68.60;;;;;;5012446;28;20022;-71
2022/03/30 02:44:13;;;;;;;27.63;14.60;;;10.90;68.70;;;;;;5012040;28;20109;-71
2022/03/30 02:46:39;;;;;;;30.00;13.75;;;10.90;68.70;;;;;;5012002;28;20044;-71
2022/03/30 02:49:05;;;;;;;27.27;12.52;;;10.90;68.60;;;;;;5012338;28;20105;-71
2022/03/30 02:51:31;;;;;;;26.25;12.15;;;10.90;68.70;;;;;;5012225;28;20068;-71
2022/03/30 02:53:57;;;;;;;27.98;11.80;;;10.90;68.70;;;;;;5012326;28;20026;-72
2022/03/30 02:56:23;;;;;;;26.30;12.13;;;11.00;68.80;;;;;;5012101;28;20080;-68
2022/03/30 02:58:49;;;;;;;26.58;11.60;;;10.90;68.60;;;;;;5011726;28;20022;-70
2022/03/30 03:01:15;;;;;;;24.98;12.10;;;10.90;68.70;;;;;;5011620;28;20041;-71
2022/03/30 03:03:41;;;;;;;36.63;18.33;;;11.00;68.60;;;;;;5011586;28;20594;-72
2022/03/30 03:06:07;;;;;;;33.10;11.95;;;10.90;69.10;;;;;;5012024;28;20112;-72
2022/03/30 03:08:33;;;;;;;24.60;9.52;;;10.90;68.80;;;;;;5011684;28;20069;-72
2022/03/30 03:10:59;;;;;;;32.47;14.63;;;11.00;68.90;;;;;;5011794;28;20065;-71
2022/03/30 03:13:25;;;;;;;46.28;20.67;;;10.90;68.70;;;;;;5011483;28;20018;-72
2022/03/30 03:15:51;;;;;;;29.48;12.65;;;10.90;69.30;;;;;;5011812;28;20032;-72
2022/03/30 03:18:18;;;;;;;27.70;11.88;;;10.80;69.10;;;;;;5011722;28;20468;-71
2022/03/30 03:20:45;;;;;;;450.52;219.30;;;10.80;69.00;;;;;;5011838;28;20112;-72
2022/03/30 03:23:12;;;;;;;638.85;301.23;;;10.70;69.30;;;;;;5011545;28;20028;-71
2022/03/30 03:25:40;;;;;;;73.30;40.08;;;10.40;70.70;;;;;;5011640;28;20025;-72
2022/03/30 03:28:08;;;;;;;137.63;64.72;;;10.20;71.70;;;;;;5011262;28;20036;-71
2022/03/30 03:30:34;;;;;;;54.72;25.15;;;10.10;72.40;;;;;;5006898;28;20030;-72
2022/03/30 03:33:01;;;;;;;45.25;24.25;;;10.00;73.10;;;;;;4997397;28;20033;-71
2022/03/30 03:35:28;;;;;;;61.58;28.95;;;10.00;73.40;;;;;;5005444;28;20033;-70
2022/03/30 03:37:54;;;;;;;47.53;27.25;;;9.90;73.80;;;;;;5008882;28;20044;-71
2022/03/30 03:40:21;;;;;;;76.78;30.77;;;9.80;74.20;;;;;;5009094;28;20123;-71
2022/03/30 03:42:48;;;;;;;55.92;24.35;;;9.70;74.70;;;;;;5008979;28;20034;-71
2022/03/30 03:45:15;;;;;;;63.78;25.48;;;9.60;74.80;;;;;;5008954;28;20050;-71
2022/03/30 03:47:41;;;;;;;44.55;21.10;;;9.60;74.80;;;;;;5008471;28;20128;-70
2022/03/30 03:50:08;;;;;;;46.55;24.00;;;9.70;74.60;;;;;;4999502;28;20639;-71
2022/03/30 03:52:33;;;;;;;47.03;22.63;;;9.70;74.60;;;;;;5011952;28;20075;-71
2022/03/30 03:54:59;;;;;;;51.88;24.38;;;9.70;74.30;;;;;;4998036;28;20022;-71
2022/03/30 03:57:26;;;;;;;56.25;21.58;;;9.70;74.70;;;;;;4993438;28;20034;-71
2022/03/30 03:59:51;;;;;;;52.35;24.17;;;9.70;74.50;;;;;;4996465;28;20515;-71
2022/03/30 04:02:17;;;;;;;42.03;16.88;;;9.70;74.30;;;;;;5012462;28;20025;-72
2022/03/30 04:04:44;;;;;;;32.30;15.23;;;9.80;74.20;;;;;;5012981;28;20549;-72
2022/03/30 04:07:10;;;;;;;34.58;18.05;;;9.80;74.00;;;;;;5006543;28;20022;-72
2022/03/30 04:09:36;;;;;;;35.15;19.52;;;9.80;74.20;;;;;;5012217;28;20439;-73
2022/03/30 04:12:03;;;;;;;33.40;17.42;;;9.80;74.40;;;;;;5012871;28;20072;-71
2022/03/30 04:14:29;;;;;;;32.05;15.25;;;9.80;74.30;;;;;;5011377;28;20026;-72
2022/03/30 04:16:55;;;;;;;26.77;12.50;;;9.80;74.20;;;;;;5009398;28;20034;-71
2022/03/30 04:19:20;;;;;;;24.83;10.45;;;9.80;73.80;;;;;;5012187;28;20030;-72
2022/03/30 04:21:46;;;;;;;24.30;12.32;;;9.80;73.90;;;;;;5012817;28;20635;-73
2022/03/30 04:24:12;;;;;;;36.80;18.58;;;9.80;73.90;;;;;;5010652;28;20053;-72
2022/03/30 04:26:39;;;;;;;37.33;16.58;;;9.80;74.20;;;;;;5012058;28;20092;-72
2022/03/30 04:29:06;;;;;;;58.58;21.55;;;9.70;74.80;;;;;;5010010;28;20029;-71
2022/03/30 04:31:32;;;;;;;51.85;17.65;;;9.60;75.60;;;;;;5011390;28;20084;-73
2022/03/30 04:33:58;;;;;;;45.45;21.65;;;9.60;76.50;;;;;;5013110;28;20022;-73
2022/03/30 04:36:33;;;;;;;43.50;22.73;;;9.60;77.50;;;;;;5014291;28;20026;-73
2022/03/30 04:39:00;;;;;;;38.60;17.30;;;9.50;77.60;;;;;;5013362;28;20030;-73
2022/03/30 04:41:26;;;;;;;32.40;14.65;;;9.40;79.10;;;;;;5027372;28;20033;-74
2022/03/30 04:43:52;;;;;;;36.63;15.07;;;9.50;82.40;;;;;;5006402;28;20084;-73
2022/03/30 04:46:18;;;;;;;32.83;15.32;;;9.50;84.70;;;;;;4987976;28;20128;-72
2022/03/30 04:48:44;;;;;;;140.10;65.88;;;9.70;86.20;;;;;;4992986;28;20023;-73
2022/03/30 04:51:10;;;;;;;70.03;31.88;;;9.90;85.30;;;;;;4993083;28;20512;-73
2022/03/30 04:53:35;;;;;;;48.65;25.80;;;10.10;83.80;;;;;;4994266;28;20108;-74
2022/03/30 04:56:01;;;;;;;62.33;29.15;;;10.20;82.70;;;;;;4994157;28;20080;-73
2022/03/30 04:58:27;;;;;;;46.85;23.13;;;10.40;82.80;;;;;;4994316;28;20472;-70
2022/03/30 05:00:53;;;;;;;48.10;23.75;;;10.60;80.90;;;;;;4993726;28;20027;-72
2022/03/30 05:03:19;;;;;;;131.45;53.45;;;10.90;80.50;;;;;;4992117;28;20150;-73
2022/03/30 05:05:45;;;;;;;77.80;37.13;;;11.10;79.30;;;;;;4994457;28;20073;-74
2022/03/30 05:08:11;;;;;;;61.15;30.25;;;11.50;77.00;;;;;;5005626;28;20021;-73
2022/03/30 05:10:37;;;;;;;51.60;21.45;;;11.70;75.20;;;;;;5012907;28;20038;-72
2022/03/30 05:13:04;;;;;;;57.90;27.13;;;11.90;73.10;;;;;;5012092;28;20038;-73
2022/03/30 05:15:30;;;;;;;42.40;21.17;;;12.20;74.10;;;;;;5013521;28;20064;-74
2022/03/30 05:17:57;;;;;;;37.15;18.88;;;12.30;72.50;;;;;;5012804;28;20052;-73
2022/03/30 05:20:25;;;;;;;46.00;19.27;;;12.50;71.80;;;;;;5013417;28;20022;-73
2022/03/30 05:22:50;;;;;;;29.23;14.40;;;12.70;72.70;;;;;;4996859;28;20151;-73
2022/03/30 05:25:19;;;;;;;26.02;13.23;;;12.80;71.50;;;;;;5013220;28;20018;-73
2022/03/30 05:27:46;;;;;;;28.30;11.63;;;13.10;71.10;;;;;;5013118;28;20025;-73
2022/03/30 05:30:12;;;;;;;22.17;11.35;;;13.50;70.20;;;;;;5012884;28;20018;-73
2022/03/30 05:32:38;;;;;;;33.58;13.45;;;13.70;69.20;;;;;;5012595;28;20056;-74
2022/03/30 05:35:05;;;;;;;29.23;11.90;;;13.90;68.80;;;;;;5012939;28;20036;-74
2022/03/30 05:37:32;;;;;;;26.27;11.57;;;14.30;68.90;;;;;;5012703;28;20541;-73
2022/03/30 05:39:58;;;;;;;24.88;11.07;;;14.20;68.50;;;;;;5013233;28;20105;-74
2022/03/30 05:42:24;;;;;;;22.58;10.68;;;14.10;68.60;;;;;;5012323;28;20025;-73
2022/03/30 05:44:51;;;;;;;22.52;9.82;;;14.00;68.60;;;;;;5012394;28;20054;-73
2022/03/30 05:47:17;;;;;;;24.83;10.88;;;14.00;68.80;;;;;;5012506;28;20393;-73
2022/03/30 05:49:43;;;;;;;19.23;8.48;;;14.10;69.20;;;;;;5012803;28;20164;-74
2022/03/30 05:52:09;;;;;;;24.00;9.43;;;14.20;69.60;;;;;;5012719;28;20361;-74
2022/03/30 05:54:35;;;;;;;25.00;9.68;;;14.30;69.50;;;;;;5012630;28;20084;-74
2022/03/30 05:57:01;;;;;;;23.73;10.13;;;14.30;69.20;;;;;;5012568;28;20149;-75
2022/03/30 05:59:29;;;;;;;26.17;8.88;;;14.30;69.60;;;;;;5012695;28;20109;-71
2022/03/30 06:01:55;;;;;;;30.25;11.02;;;14.30;69.40;;;;;;5012252;28;20030;-67
2022/03/30 06:04:22;;;;;;;23.60;9.20;;;14.30;69.70;;;;;;5024251;28;20045;-75
2022/03/30 06:06:50;;;;;;;23.85;9.30;;;14.30;69.40;;;;;;5012430;28;20038;-72
2022/03/30 06:09:17;;;;;;;21.70;9.38;;;14.30;69.50;;;;;;5012656;28;20026;-74
2022/03/30 06:11:43;;;;;;;26.83;10.40;;;14.40;69.80;;;;;;5012232;28;20056;-74
2022/03/30 06:14:09;;;;;;;23.02;11.25;;;14.40;69.90;;;;;;5011758;28;20088;-72
2022/03/30 06:16:36;;;;;;;26.40;10.55;;;14.50;70.00;;;;;;5011273;28;20040;-74
2022/03/30 06:19:02;;;;;;;24.52;11.10;;;14.70;69.80;;;;;;5012105;28;20129;-74
2022/03/30 06:21:31;;;;;;;24.00;11.45;;;14.80;69.90;;;;;;5012529;28;20084;-72
2022/03/30 06:23:58;;;;;;;26.38;11.73;;;14.90;70.20;;;;;;5011900;28;20041;-74
2022/03/30 06:26:25;;;;;;;26.75;11.05;;;14.90;69.60;;;;;;5011457;28;20361;-74
2022/03/30 06:28:51;;;;;;;23.00;10.07;;;14.90;69.70;;;;;;5011975;28;20030;-73
2022/03/30 06:31:17;;;;;;;28.20;10.70;;;14.90;69.40;;;;;;5011360;28;20060;-73
2022/03/30 06:33:47;;;;;;;24.00;9.35;;;14.90;69.20;;;;;;5011008;28;20020;-71
2022/03/30 06:36:13;;;;;;;23.92;10.30;;;15.00;69.00;;;;;;5011332;28;20030;-73
2022/03/30 06:38:41;;;;;;;24.02;10.27;;;15.10;70.00;;;;;;5011988;28;20125;-74
2022/03/30 06:41:09;;;;;;;28.77;12.65;;;15.20;69.20;;;;;;5010830;28;20037;-73
2022/03/30 06:43:42;;;;;;;24.45;10.02;;;15.30;69.50;;;;;;5012374;28;20375;-74
2022/03/30 06:46:09;;;;;;;33.50;11.30;;;15.30;68.40;;;;;;5011294;28;20053;-73
2022/03/30 06:48:35;;;;;;;23.02;10.95;;;15.40;68.60;;;;;;5010788;28;20057;-74
2022/03/30 06:51:01;;;;;;;30.17;11.20;;;15.50;68.90;;;;;;5011691;28;20076;-74
2022/03/30 06:53:27;;;;;;;24.88;9.60;;;15.60;68.60;;;;;;5011903;28;20456;-74
2022/03/30 06:55:53;;;;;;;20.85;10.20;;;15.70;68.60;;;;;;5011821;28;20112;-74
2022/03/30 06:58:22;;;;;;;25.25;10.85;;;15.70;68.10;;;;;;5011751;28;20037;-74
2022/03/30 07:00:48;;;;;;;23.30;10.35;;;15.80;67.20;;;;;;5011565;28;20615;-74
2022/03/30 07:03:14;;;;;;;29.63;10.35;;;15.90;67.30;;;;;;5011815;28;20033;-72
2022/03/30 07:05:40;;;;;;;24.42;9.57;;;15.90;67.90;;;;;;5010871;28;20026;-74
2022/03/30 07:10:50;;;;;;;27.75;9.15;;;16.10;67.60;;;;;;5010855;28;20396;-74
2022/03/30 07:13:16;;;;;;;28.77;10.32;;;16.20;67.70;;;;;;5011264;28;20103;-74
2022/03/30 07:15:42;;;;;;;28.90;11.52;;;16.20;68.00;;;;;;5010614;28;20589;-74
2022/03/30 07:18:08;;;;;;;25.70;12.23;;;16.30;67.90;;;;;;5011428;28;20113;-73
2022/03/30 07:20:35;;;;;;;25.90;12.27;;;16.50;68.80;;;;;;5011315;28;20397;-74
2022/03/30 07:23:02;;;;;;;26.05;12.93;;;16.70;67.80;;;;;;5009738;28;20447;-74
2022/03/30 07:25:30;;;;;;;29.48;13.90;;;16.90;68.80;;;;;;5012724;28;20033;-73
2022/03/30 07:27:58;;;;;;;31.23;13.23;;;17.10;66.90;;;;;;5014630;28;20480;-76
2022/03/30 07:30:25;;;;;;;32.42;13.63;;;17.20;67.20;;;;;;5014928;28;20057;-76
2022/03/30 07:32:52;;;;;;;31.75;11.90;;;17.40;67.40;;;;;;5015121;28;20068;-76
2022/03/30 07:35:20;;;;;;;37.83;11.98;;;17.50;66.30;;;;;;5015403;28;20038;-76
2022/03/30 07:37:47;;;;;;;24.40;9.77;;;17.60;65.30;;;;;;5029935;28;20117;-76
2022/03/30 07:40:18;;;;;;;27.00;10.35;;;17.80;65.10;;;;;;5014995;28;20026;-76
2022/03/30 07:42:49;;;;;;;21.35;9.98;;;17.90;65.00;;;;;;5013845;28;20030;-74
2022/03/30 07:45:15;;;;;;;22.95;9.75;;;18.00;64.60;;;;;;5007829;28;20045;-75
2022/03/30 07:47:41;;;;;;;26.75;10.55;;;18.00;63.70;;;;;;5015065;28;20138;-74
2022/03/30 07:50:08;;;;;;;21.50;10.55;;;18.00;64.70;;;;;;5015056;28;20480;-72
2022/03/30 07:52:34;;;;;;;23.20;11.43;;;18.10;65.10;;;;;;5013961;28;20095;-74
2022/03/30 07:55:00;;;;;;;27.75;10.90;;;18.20;64.50;;;;;;5029997;28;20030;-74
2022/03/30 07:57:26;;;;;;;21.63;9.10;;;18.20;65.30;;;;;;5029904;28;20040;-74
2022/03/30 07:59:57;;;;;;;29.25;8.65;;;18.20;63.60;;;;;;5014164;28;20026;-74
2022/03/30 08:02:24;;;;;;;19.10;8.70;;;18.20;63.70;;;;;;5014214;28;20057;-74
2022/03/30 08:04:50;;;;;;;16.88;8.25;;;18.20;63.60;;;;;;5013872;28;20030;-75
2022/03/30 08:07:16;;;;;;;17.83;7.40;;;18.20;62.40;;;;;;5014924;28;20033;-75
2022/03/30 08:09:43;;;;;;;16.67;6.97;;;18.20;63.50;;;;;;5014426;28;20034;-72
2022/03/30 08:12:11;;;;;;;13.95;5.93;;;18.30;60.90;;;;;;5012897;28;20117;-73
2022/03/30 08:14:37;;;;;;;16.05;5.50;;;18.30;61.00;;;;;;5014271;28;20045;-74
2022/03/30 08:17:06;;;;;;;18.75;6.63;;;18.20;59.20;;;;;;5014310;28;20030;-75
2022/03/30 08:19:32;;;;;;;22.50;5.30;;;18.30;59.60;;;;;;5014014;28;20042;-74
2022/03/30 08:24:46;;;;;;;17.63;5.30;;;18.40;59.30;;;;;;5014543;28;20021;-73
2022/03/30 08:27:23;;;;;;;9.15;4.20;;;18.50;59.50;;;;;;5013537;28;20092;-75
2022/03/30 08:29:51;;;;;;;19.80;5.90;;;18.50;57.70;;;;;;5014209;28;20096;-74
2022/03/30 08:32:21;;;;;;;14.40;4.47;;;18.50;58.20;;;;;;5014127;28;20034;-75
2022/03/30 08:34:48;;;;;;;18.02;5.10;;;18.60;58.00;;;;;;5014347;28;20388;-74
2022/03/30 08:37:14;;;;;;;13.40;5.65;;;18.70;58.80;;;;;;5006124;28;20460;-75
2022/03/30 08:39:40;;;;;;;17.65;5.20;;;18.90;59.90;;;;;;5013927;28;20122;-74
2022/03/30 08:42:08;;;;;;;21.13;5.85;;;18.80;58.20;;;;;;5014131;28;20087;-75
2022/03/30 08:44:35;;;;;;;17.55;5.32;;;18.90;60.00;;;;;;5012469;28;20061;-74
2022/03/30 08:47:01;;;;;;;18.70;5.10;;;19.10;58.90;;;;;;5013757;28;20026;-74
2022/03/30 08:49:33;;;;;;;16.25;4.88;;;19.20;57.90;;;;;;5012997;28;20108;-71
2022/03/30 08:52:00;;;;;;;16.27;5.15;;;19.20;57.60;;;;;;5013736;28;20069;-74
2022/03/30 08:54:26;;;;;;;12.82;4.55;;;19.30;57.70;;;;;;5014119;28;20025;-75
2022/03/30 08:56:52;;;;;;;12.52;4.80;;;19.30;56.40;;;;;;5013547;28;20036;-75
2022/03/30 08:59:20;;;;;;;10.90;4.93;;;19.30;57.00;;;;;;5013958;28;20088;-73
2022/03/30 09:01:47;;;;;;;12.35;4.10;;;19.20;56.60;;;;;;5013717;28;20034;-73
2022/03/30 09:04:15;;;;;;;21.10;4.97;;;19.20;56.90;;;;;;5028802;28;20014;-73
2022/03/30 09:06:45;;;;;;;15.23;4.43;;;19.40;57.00;;;;;;5012821;28;20037;-74
2022/03/30 09:09:13;;;;;;;12.73;4.25;;;19.40;55.80;;;;;;5011519;28;20026;-75
2022/03/30 09:11:40;;;;;;;25.55;5.95;;;19.40;56.10;;;;;;5011716;28;20030;-74
2022/03/30 09:14:10;;;;;;;10.90;4.65;;;19.30;54.90;;;;;;5013145;28;20148;-73
2022/03/30 09:16:50;;;;;;;15.68;4.75;;;19.20;55.30;;;;;;5012826;28;20036;-74
2022/03/30 09:19:20;;;;;;;15.95;5.45;;;19.20;55.30;;;;;;5013211;28;20030;-74
2022/03/30 09:21:53;;;;;;;18.50;4.70;;;19.10;56.00;;;;;;5013129;28;20038;-73
2022/03/30 09:24:27;;;;;;;14.80;4.68;;;19.10;56.50;;;;;;5012911;28;20033;-73
2022/03/30 09:26:54;;;;;;;15.70;4.60;;;19.20;55.50;;;;;;5013135;28;20505;-74
2022/03/30 09:29:23;;;;;;;18.02;4.68;;;19.10;55.80;;;;;;5012722;28;20022;-74
2022/03/30 09:31:50;;;;;;;14.10;4.40;;;19.20;55.70;;;;;;5007283;28;20034;-73
2022/03/30 09:34:16;;;;;;;13.02;4.38;;;19.20;55.70;;;;;;5009143;28;20034;-74
2022/03/30 09:36:44;;;;;;;16.10;4.93;;;19.20;55.50;;;;;;5012026;28;20033;-74
2022/03/30 09:39:37;;;;;;;14.75;4.95;;;19.20;54.90;;;;;;5011437;28;20033;-75
2022/03/30 09:42:05;;;;;;;13.73;4.32;;;19.20;54.90;;;;;;5011609;28;20026;-74
2022/03/30 09:44:48;;;;;;;13.15;4.68;;;19.20;56.30;;;;;;5010686;28;20135;-71
2022/03/30 09:47:15;;;;;;;14.93;4.90;;;19.20;55.30;;;;;;5010285;28;20034;-74
2022/03/30 09:49:45;;;;;;;14.98;4.72;;;19.40;55.50;;;;;;5011228;28;20416;-73
2022/03/30 09:52:15;;;;;;;14.70;5.32;;;19.20;54.60;;;;;;5011343;28;20073;-74
2022/03/30 09:54:49;;;;;;;14.95;6.03;;;19.40;55.90;;;;;;5002706;28;20173;-74
2022/03/30 09:57:21;;;;;;;;;;;19.50;56.70;;;;;;5011470;28;20117;-73
2022/03/30 10:00:09;;;;;;;16.02;5.50;;;19.60;56.30;;;;;;5011584;28;19963;-73
2022/03/30 10:02:53;;;;;;;11.77;4.75;;;19.70;54.90;;;;;;5011340;28;20042;-73
2022/03/30 10:05:21;;;;;;;12.85;4.40;;;19.70;54.20;;;;;;5011907;28;20021;-74
2022/03/30 10:07:48;;;;;;;13.82;5.65;;;19.80;54.70;;;;;;5007385;28;20022;-72
2022/03/30 10:10:19;;;;;;;16.23;6.28;;;19.90;55.80;;;;;;5006652;28;20030;-74
2022/03/30 10:12:45;;;;;;;13.52;4.50;;;20.00;54.60;;;;;;4992101;28;20436;-74
2022/03/30 10:15:12;;;;;;;15.23;5.18;;;20.10;54.90;;;;;;4992510;28;20018;-73
2022/03/30 10:17:39;;;;;;;11.00;5.03;;;20.20;55.30;;;;;;5007581;28;20082;-71
2022/03/30 10:20:08;;;;;;;13.07;4.70;;;20.10;55.00;;;;;;4976164;28;20073;-72
2022/03/30 10:22:37;;;;;;;18.88;4.55;;;20.00;54.80;;;;;;4991725;28;20076;-73
2022/03/30 10:25:24;;;;;;;14.00;5.28;;;20.20;54.70;;;;;;5002616;28;20452;-73
2022/03/30 10:28:06;;;;;;;11.82;3.83;;;20.10;53.80;;;;;;4998723;28;20027;-73
2022/03/30 10:30:33;;;;;;;11.18;4.90;;;20.20;54.20;;;;;;4998169;28;20030;-72
2022/03/30 10:33:02;;;;;;;13.55;4.82;;;20.10;54.20;;;;;;5002893;28;20035;-73
2022/03/30 10:35:39;;;;;;;10.57;4.65;;;20.10;54.10;;;;;;4992102;28;20114;-70
2022/03/30 10:38:05;;;;;;;12.68;4.38;;;20.00;54.70;;;;;;5008256;28;20042;-74
2022/03/30 10:40:31;;;;;;;9.98;4.30;;;20.00;54.20;;;;;;5004113;28;20026;-71
2022/03/30 10:43:00;;;;;;;13.95;4.75;;;20.10;56.20;;;;;;4992517;28;20041;-73
2022/03/30 10:45:28;;;;;;;12.65;4.43;;;19.90;55.90;;;;;;5006565;28;20049;-70
2022/03/30 10:48:12;;;;;;;12.93;5.22;;;19.80;54.30;;;;;;5011524;28;20029;-73
2022/03/30 10:50:57;;;;;;;11.60;5.55;;;19.90;55.80;;;;;;5008430;28;20077;-72
2022/03/30 10:53:33;;;;;;;13.80;4.32;;;19.90;55.10;;;;;;5009867;28;20476;-72
2022/03/30 10:56:14;;;;;;;12.98;5.18;;;19.80;55.60;;;;;;5008500;28;20096;-72
2022/03/30 10:58:49;;;;;;;14.32;4.95;;;19.80;56.00;;;;;;4997873;28;20088;-73
2022/03/30 11:01:22;;;;;;;15.13;4.85;;;19.90;57.10;;;;;;5010090;28;20022;-69
2022/03/30 11:03:57;;;;;;;14.85;4.65;;;19.90;55.50;;;;;;5010703;28;20037;-65
2022/03/30 11:06:23;;;;;;;16.60;4.75;;;19.90;55.00;;;;;;5011403;28;20376;-71
2022/03/30 11:08:49;;;;;;;11.75;4.93;;;19.80;55.00;;;;;;5011075;28;20018;-72
2022/03/30 11:11:34;;;;;;;15.68;5.28;;;19.80;54.40;;;;;;5009813;28;20426;-69
2022/03/30 11:14:31;;;;;;;16.92;5.22;;;20.00;55.90;;;;;;5003888;28;20026;-72
2022/03/30 11:17:07;;;;;;;9.23;4.43;;;20.10;54.00;;;;;;5026461;28;20038;-73
2022/03/30 11:19:48;;;;;;;19.33;5.82;;;20.30;55.00;;;;;;4997454;28;20030;-72
2022/03/30 11:22:26;;;;;;;13.75;5.03;;;20.40;55.70;;;;;;4994170;28;20464;-73
2022/03/30 11:25:19;;;;;;;17.05;5.32;;;20.60;57.50;;;;;;5000397;28;20030;-73
2022/03/30 11:27:57;;;;;;;12.07;4.97;;;20.60;54.80;;;;;;5005858;28;20041;-74
2022/03/30 11:30:37;;;;;;;15.93;5.53;;;20.60;54.70;;;;;;5002897;28;20674;-74
2022/03/30 11:33:26;;;;;;;28.65;20.05;;;20.60;53.20;;;;;;4999979;28;20026;-73
2022/03/30 11:35:52;;;;;;;33.63;17.25;;;20.60;52.90;;;;;;5011226;28;20058;-73
2022/03/30 11:38:32;;;;;;;34.15;16.40;;;20.70;54.50;;;;;;5011188;28;20026;-74
2022/03/30 11:41:06;;;;;;;37.97;19.05;;;20.90;55.10;;;;;;5011455;28;20045;-74
2022/03/30 11:45:12;;;;;;;133.98;95.15;;;20.90;53.50;;;;;;5011415;28;20034;-73
2022/03/30 11:46:27;;;;;;;151.70;110.53;;;21.00;55.10;;;;;;5000276;28;20562;-74
2022/03/30 11:48:53;;;;;;;158.15;122.45;;;21.00;53.80;;;;;;5010773;28;20499;-72
2022/03/30 11:51:26;;;;;;;232.55;161.95;;;20.90;53.60;;;;;;5004526;28;20037;-74
2022/03/30 11:54:09;;;;;;;33.30;17.75;;;21.00;54.80;;;;;;4991577;28;20030;-75
2022/03/30 11:56:35;;;;;;;16.98;7.32;;;21.00;56.00;;;;;;5003725;28;20475;-74
2022/03/30 11:59:01;;;;;;;14.45;6.65;;;21.00;53.60;;;;;;5011043;28;20029;-67
2022/03/30 12:01:27;;;;;;;13.20;5.30;;;21.20;54.10;;;;;;5016244;28;20057;-71
2022/03/30 12:03:55;;;;;;;14.80;5.65;;;21.00;53.40;;;;;;4977617;28;20059;-72
2022/03/30 12:06:21;;;;;;;19.13;5.47;;;21.00;53.00;;;;;;4995205;28;20372;-73
2022/03/30 12:08:49;;;;;;;18.95;5.47;;;21.20;54.30;;;;;;5011093;28;20025;-75
2022/03/30 12:11:23;;;;;;;16.73;7.68;;;21.10;53.80;;;;;;5011323;28;20044;-74
2022/03/30 12:13:54;;;;;;;13.45;6.05;;;21.10;53.70;;;;;;5014645;28;20030;-74
2022/03/30 12:16:21;;;;;;;16.52;7.05;;;21.10;53.70;;;;;;5014492;28;20045;-73
2022/03/30 12:18:55;;;;;;;11.48;5.70;;;20.90;52.80;;;;;;5011836;28;20026;-73
2022/03/30 12:21:24;;;;;;;13.98;6.38;;;21.00;54.30;;;;;;5008980;28;20037;-74
2022/03/30 12:23:54;;;;;;;13.48;5.90;;;21.10;54.40;;;;;;5013957;28;20013;-72
2022/03/30 12:26:20;;;;;;;16.50;6.40;;;21.10;53.80;;;;;;5003943;28;20371;-74
2022/03/30 12:28:46;;;;;;;17.38;6.45;;;21.10;54.10;;;;;;4994082;28;20491;-73
2022/03/30 12:31:14;;;;;;;17.25;7.88;;;21.10;53.50;;;;;;5010629;28;20034;-72
2022/03/30 12:33:52;;;;;;;16.92;5.90;;;21.00;53.30;;;;;;5013450;28;20049;-72
2022/03/30 12:36:20;;;;;;;16.38;5.53;;;20.90;53.40;;;;;;5013406;28;20037;-71
2022/03/30 12:38:50;;;;;;;15.65;6.15;;;20.80;54.00;;;;;;5013708;28;20022;-74
2022/03/30 12:41:26;;;;;;;22.77;6.50;;;20.90;53.90;;;;;;5012610;28;20037;-73
2022/03/30 12:44:03;;;;;;;17.05;6.13;;;20.90;53.50;;;;;;5012898;28;20472;-74
2022/03/30 12:46:31;;;;;;;17.02;6.40;;;21.00;53.90;;;;;;5012807;28;20113;-74